Disclaimer

Please do not use the information listed here in-flight or in-navigation, as they are not provided to us by the airports but are provided by volunteers, so they might be outdated.

Search


Regions


Airport information page

No radio frequency information is available.

Airport informations:
Latitude: 65° 27' 40.00" N
Longitude: 012° 13' 03.00" E
Elevation: 25 feet - 8 meters
Operating hours: 24 hour operations
Operating agency: Civil government, landing fees and diplomatic clearance may be required
Timezone: UTC+1(+2DT) - Last Sunday in March to last Sunday in October
Fuel: Jet A1, without icing nhibitor.

100/130 MIL Spec, low lead, aviation gasoline (BLUE)

Runway information:
04/22 - 3937 x 98 feet< - >1200 x 30 meters

Recent METARs:
ENBN 180820Z AUTO 04003KT 360V070 9999NDV NCD 03/01 Q1043
ENBN 180850Z AUTO 28004KT 190V310 9999NDV NCD 02/02 Q1043
ENBN 180920Z AUTO 29003KT 9999NDV NCD 02/02 Q1043

Airport on the map: